Time;durP1;ratioP1;P1;durP2;ratioP2;P2;SDS_P1;SDS_P2;PMS_P1;PMS_P2;Temp;Humidity;BMP_temperature;BMP_pressure;BME280_temperature;BME280_humidity;BME280_pressure;Samples;Min_cycle;Max_cycle;Signal;HPM_P1;HPM_P2
2022/06/14 04:09:22;;;;;;;;;;;;;;;5.11;87.23;100220.50;6325974;22;19922;-91
2022/06/14 04:11:59;;;;;;;;;;;;;;;5.11;86.97;100212.63;6292686;22;19922;-91
2022/06/14 04:14:28;;;;;;;;;;;;;;;4.99;86.55;100215.41;6278180;22;19921;-90
2022/06/14 04:17:19;;;;;;;;;;;;;;;5.12;86.72;100214.34;6279817;22;20014;-90
2022/06/14 04:23:22;;;;;;;;;;;;;;;5.20;86.01;100219.50;6212248;23;20384;-90
2022/06/14 04:25:55;;;;;;;;;;;;;;;5.23;86.34;100216.81;6298014;22;19943;-88
2022/06/14 04:28:36;;;;;;;;;;;;;;;5.05;85.88;100218.81;6278150;22;20230;-88
2022/06/14 04:31:07;;;;;;;;;;;;;;;5.07;86.31;100218.78;6279639;22;20103;-88
2022/06/14 04:33:46;;;;;;;;;;;;;;;4.97;86.30;100218.03;6306714;22;19922;-88
2022/06/14 04:36:14;;;;;;;;;;;;;;;5.03;86.18;100214.47;6306720;22;19938;-88
2022/06/14 04:38:42;;;;;;;;;;;;;;;4.89;86.83;100220.75;6285366;22;19922;-87
2022/06/14 04:41:16;;;;;;;;;;;;;;;4.85;87.28;100229.59;6306759;22;19915;-87
2022/06/14 04:43:41;;;;;;;;;;;;;;;4.90;87.43;100219.88;6277886;22;20287;-87
2022/06/14 04:46:09;;;;;;;;;;;;;;;5.17;87.84;100219.53;6306913;22;19958;-87
2022/06/14 04:48:38;;;;;;;;;;;;;;;5.01;87.24;100216.25;6307016;22;19918;-87
2022/06/14 04:51:10;;;;;;;;;;;;;;;5.05;87.66;100215.31;6279274;22;19910;-88
2022/06/14 04:53:45;;;;;;;;;;;;;;;4.91;87.72;100215.50;6306935;22;20328;-87
2022/06/14 04:56:13;;;;;;;;;;;;;;;5.01;87.95;100214.50;6306992;22;20334;-87
2022/06/14 04:58:49;;;;;;;;;;;;;;;5.04;88.06;100209.22;6277392;22;20348;-87
2022/06/14 05:01:17;;;;;;;;;;;;;;;5.08;87.79;100208.25;6279258;22;19961;-87
2022/06/14 05:03:48;;;;;;;;;;;;;;;4.85;87.87;100208.56;6306504;22;19938;-87
2022/06/14 05:06:16;;;;;;;;;;;;;;;4.69;88.26;100210.53;6306527;22;20281;-87
2022/06/14 05:08:47;;;;;;;;;;;;;;;4.87;88.44;100211.19;6306520;22;20027;-89
2022/06/14 05:11:18;;;;;;;;;;;;;;;5.07;87.97;100209.16;6306005;22;19921;-88
2022/06/14 05:13:52;;;;;;;;;;;;;;;4.94;87.56;100204.09;6305026;22;19942;-88
2022/06/14 05:16:29;;;;;;;;;;;;;;;4.85;87.84;100207.69;6306847;22;20301;-87
2022/06/14 05:18:57;;;;;;;;;;;;;;;4.83;87.89;100212.09;6306537;22;20349;-87
2022/06/14 05:21:43;;;;;;;;;;;;;;;4.77;88.13;100202.56;6306613;22;19911;-87
2022/06/14 07:55:10;;;;;;;;;;;;;;;5.12;89.56;100143.41;6302087;22;19975;-86
2022/06/14 07:57:45;;;;;;;;;;;;;;;5.06;89.12;100140.91;6308544;22;19988;-86
2022/06/14 08:03:13;;;;;;;;;;;;;;;4.96;89.49;100139.28;6337080;22;20253;-85
2022/06/14 08:05:41;;;;;;;;;;;;;;;5.40;90.05;100132.50;6335988;22;20268;-87
2022/06/14 08:08:08;;;;;;;;;;;;;;;5.14;88.68;100133.75;6336296;22;20306;-87
2022/06/14 08:10:42;;;;;;;;;;;;;;;5.14;89.15;100136.41;6337806;22;19910;-87
2022/06/14 08:13:10;;;;;;;;;;;;;;;5.08;89.31;100136.47;6308528;22;19911;-88
2022/06/14 08:15:37;;;;;;;;;;;;;;;4.97;89.42;100128.75;6309368;22;19915;-86
2022/06/14 08:18:03;;;;;;;;;;;;;;;5.04;89.69;100135.66;6310054;22;19948;-87
2022/06/14 08:20:41;;;;;;;;;;;;;;;5.12;89.32;100126.78;6310208;22;19911;-86
2022/06/14 08:23:34;;;;;;;;;;;;;;;5.04;89.78;100132.16;6308538;22;19955;-86
2022/06/14 08:26:08;;;;;;;;;;;;;;;4.96;90.36;100132.25;6332207;22;19911;-86
2022/06/14 08:28:47;;;;;;;;;;;;;;;4.96;90.48;100131.41;6309199;22;19917;-86
2022/06/14 08:31:26;;;;;;;;;;;;;;;5.05;90.01;100126.03;6309647;22;20386;-86
2022/06/14 08:34:00;;;;;;;;;;;;;;;5.05;89.67;100124.25;6337508;22;20337;-86
2022/06/14 08:36:31;;;;;;;;;;;;;;;5.09;89.91;100122.47;6336331;22;20245;-86
2022/06/14 08:39:05;;;;;;;;;;;;;;;5.06;90.01;100126.00;6310025;22;19910;-86
2022/06/14 08:45:09;;;;;;;;;;;;;;;8.74;90.93;100110.81;6195681;23;19920;-86
2022/06/14 08:47:53;;;;;;;;;;;;;;;7.19;92.98;100118.47;6211682;23;20252;-86
2022/06/14 08:50:18;;;;;;;;;;;;;;;6.54;93.24;100115.50;6315850;22;19922;-88
2022/06/14 08:52:55;;;;;;;;;;;;;;;6.40;93.07;100111.41;6308664;22;19918;-86
2022/06/14 08:55:24;;;;;;;;;;;;;;;6.12;92.12;100114.59;6305327;22;19915;-87
2022/06/14 08:57:58;;;;;;;;;;;;;;;6.01;91.51;100106.91;6304912;22;19976;-86
2022/06/14 09:00:29;;;;;;;;;;;;;;;6.03;91.33;100106.88;6306630;22;19911;-87
2022/06/14 09:03:11;;;;;;;;;;;;;;;5.88;90.64;100106.22;6304276;22;20004;-86
2022/06/14 09:05:47;;;;;;;;;;;;;;;5.85;90.26;100111.53;6304134;22;19915;-86
2022/06/14 09:08:21;;;;;;;;;;;;;;;5.79;90.36;100104.66;6303323;22;19911;-88
2022/06/14 09:11:05;;;;;;;;;;;;;;;5.75;89.93;100096.84;6304743;22;19915;-86
2022/06/14 09:13:49;;;;;;;;;;;;;;;5.97;89.69;100098.22;6303931;22;19915;-87
2022/06/14 09:16:33;;;;;;;;;;;;;;;5.91;89.23;100097.44;6305638;22;20342;-86
2022/06/14 09:19:03;;;;;;;;;;;;;;;5.91;89.29;100087.78;6305915;22;19925;-86
2022/06/14 09:21:55;;;;;;;;;;;;;;;5.95;89.41;100092.09;6304334;22;19915;-86
2022/06/14 09:24:32;;;;;;;;;;;;;;;5.95;89.09;100091.19;6257480;22;19998;-86
2022/06/14 09:27:07;;;;;;;;;;;;;;;5.83;89.57;100095.78;6305673;22;19918;-87
2022/06/14 09:29:50;;;;;;;;;;;;;;;5.92;89.30;100080.72;6308088;22;19911;-86
2022/06/14 09:32:16;;;;;;;;;;;;;;;5.83;89.37;100077.38;6305633;22;19918;-89
2022/06/14 09:35:01;;;;;;;;;;;;;;;5.83;89.06;100087.06;6306707;22;20315;-87
2022/06/14 09:37:32;;;;;;;;;;;;;;;5.80;88.99;100079.22;6305262;22;20303;-86
2022/06/14 09:40:10;;;;;;;;;;;;;;;5.75;89.01;100073.19;6305635;22;20389;-86
2022/06/14 09:42:38;;;;;;;;;;;;;;;5.93;89.32;100072.81;6306480;22;20315;-86
2022/06/14 09:45:16;;;;;;;;;;;;;;;5.81;89.04;100065.19;6307698;22;19937;-86
2022/06/14 09:47:47;;;;;;;;;;;;;;;5.96;89.33;100064.00;6306655;22;20349;-86
2022/06/14 09:50:33;;;;;;;;;;;;;;;5.85;89.23;100065.97;6304991;22;19914;-86
2022/06/14 09:53:17;;;;;;;;;;;;;;;5.80;89.03;100064.28;6305597;22;19969;-87
2022/06/14 09:55:42;;;;;;;;;;;;;;;5.91;89.17;100057.97;6306314;22;19926;-87
2022/06/14 09:58:40;;;;;;;;;;;;;;;5.93;89.22;100053.53;6306803;22;19915;-87
2022/06/14 10:01:08;;;;;;;;;;;;;;;5.93;89.21;100058.81;6238499;22;20219;-87
2022/06/14 10:03:44;;;;;;;;;;;;;;;5.94;89.16;100050.03;6307731;22;19915;-87
2022/06/14 10:06:10;;;;;;;;;;;;;;;5.96;89.20;100054.38;6307028;22;19915;-85
2022/06/14 10:08:38;;;;;;;;;;;;;;;5.86;89.30;100052.81;6303542;22;20437;-87
2022/06/14 10:11:11;;;;;;;;;;;;;;;5.89;89.49;100046.59;6305190;22;19918;-87
2022/06/14 10:13:45;;;;;;;;;;;;;;;5.85;89.57;100045.81;6307812;22;19911;-86
2022/06/14 10:16:16;;;;;;;;;;;;;;;6.00;89.71;100044.69;6305539;22;19915;-87
2022/06/14 10:19:31;;;;;;;;;;;;;;;;;;;;;
2022/06/14 10:22:15;;;;;;;;;;;;;;;6.03;89.52;100043.75;6181829;23;20492;-87
2022/06/14 10:25:10;;;;;;;;;;;;;;;5.99;89.77;100037.69;6183014;23;19971;-87
2022/06/14 10:30:53;;;;;;;;;;;;;;;6.09;90.03;100041.84;6306965;22;19957;-87
2022/06/14 10:33:28;;;;;;;;;;;;;;;5.91;89.74;100037.78;6305305;22;19915;-86
2022/06/14 10:36:12;;;;;;;;;;;;;;;6.01;90.10;100030.63;6306620;22;19918;-87
2022/06/14 10:38:43;;;;;;;;;;;;;;;6.08;89.70;100029.59;6304757;22;19997;-87
2022/06/14 10:41:20;;;;;;;;;;;;;;;6.04;89.52;100032.34;6307455;22;19969;-87
2022/06/14 10:43:54;;;;;;;;;;;;;;;6.05;89.63;100029.66;6306813;22;19996;-86
2022/06/14 10:46:55;;;;;;;;;;;;;;;5.96;90.04;100032.44;6305330;22;19911;-87
2022/06/14 10:49:36;;;;;;;;;;;;;;;6.02;89.77;100027.09;6182212;23;19913;-86
2022/06/14 10:52:15;;;;;;;;;;;;;;;5.96;90.12;100024.56;6292461;22;19915;-86
2022/06/14 10:54:55;;;;;;;;;;;;;;;6.06;89.96;100018.22;6306279;22;19914;-87
2022/06/14 10:57:20;;;;;;;;;;;;;;;5.96;89.98;100017.56;6307847;22;20342;-88
2022/06/14 10:59:51;;;;;;;;;;;;;;;6.00;89.89;100024.50;6305917;22;19986;-87
2022/06/14 11:02:22;;;;;;;;;;;;;;;6.10;90.24;100024.31;6305974;22;20007;-87
2022/06/14 11:05:01;;;;;;;;;;;;;;;5.96;89.90;100012.28;6307554;22;19915;-87
2022/06/14 11:07:44;;;;;;;;;;;;;;;5.92;90.02;100001.81;6304185;22;19915;-88
2022/06/14 11:10:21;;;;;;;;;;;;;;;6.06;90.56;100001.59;6307468;22;20345;-86
2022/06/14 11:13:04;;;;;;;;;;;;;;;6.06;90.31;100002.44;6305776;22;19950;-87
2022/06/14 11:15:47;;;;;;;;;;;;;;;6.01;90.14;99999.03;6307474;22;19911;-87
2022/06/14 11:18:13;;;;;;;;;;;;;;;6.07;90.27;99992.81;6307358;22;19911;-86
2022/06/14 11:20:38;;;;;;;;;;;;;;;6.31;90.91;99987.00;6307480;22;19925;-87
2022/06/14 11:23:22;;;;;;;;;;;;;;;6.27;89.90;99980.09;6304521;22;19911;-87
2022/06/14 11:25:47;;;;;;;;;;;;;;;6.13;90.37;99988.28;6307371;22;19915;-87
2022/06/14 11:28:35;;;;;;;;;;;;;;;6.06;89.93;99991.91;6305813;22;19911;-87
2022/06/14 11:31:00;;;;;;;;;;;;;;;6.20;90.04;99973.22;6305685;22;19915;-88
2022/06/14 11:33:33;;;;;;;;;;;;;;;6.24;90.15;99982.78;6307258;22;19959;-87
2022/06/14 11:36:13;;;;;;;;;;;;;;;6.17;90.04;99975.91;6305619;22;19919;-87
2022/06/14 11:38:50;;;;;;;;;;;;;;;6.30;90.42;99974.75;6304469;22;19946;-87
2022/06/14 11:41:19;;;;;;;;;;;;;;;6.18;89.54;99975.03;6304973;22;19991;-88
2022/06/14 11:43:45;;;;;;;;;;;;;;;6.16;90.04;99976.84;6305628;22;19911;-86
2022/06/14 11:46:16;;;;;;;;;;;;;;;6.18;89.88;99969.75;6305927;22;19914;-87
2022/06/14 11:48:41;;;;;;;;;;;;;;;6.19;89.85;99966.25;6306406;22;19919;-87
2022/06/14 11:51:12;;;;;;;;;;;;;;;6.20;89.60;99957.44;6303797;22;19989;-89
2022/06/14 11:53:46;;;;;;;;;;;;;;;6.25;89.99;99966.06;6305948;22;19911;-88
2022/06/14 11:56:17;;;;;;;;;;;;;;;6.32;89.25;99953.69;6333558;22;19959;-89
2022/06/14 11:58:42;;;;;;;;;;;;;;;6.44;89.83;99955.16;6337558;22;19922;-87
2022/06/14 12:01:32;;;;;;;;;;;;;;;6.24;89.57;99959.09;6310557;22;19914;-87
2022/06/14 12:04:06;;;;;;;;;;;;;;;6.18;89.81;99949.56;6310617;22;19917;-87
2022/06/14 12:06:50;;;;;;;;;;;;;;;6.24;89.68;99953.84;6307579;22;19945;-88
2022/06/14 12:09:18;;;;;;;;;;;;;;;6.23;89.90;99935.47;6310051;22;20375;-86
2022/06/14 12:12:06;;;;;;;;;;;;;;;6.25;89.86;99936.28;6336951;22;19921;-88
2022/06/14 12:14:47;;;;;;;;;;;;;;;6.45;89.95;99933.19;6266728;22;20302;-87
2022/06/14 12:17:31;;;;;;;;;;;;;;;6.40;90.26;99935.03;6310321;22;19910;-87
2022/06/14 12:20:02;;;;;;;;;;;;;;;6.24;90.18;99922.25;6338061;22;19938;-88
2022/06/14 12:22:39;;;;;;;;;;;;;;;6.51;90.72;99930.38;6308809;22;19911;-88
2022/06/14 12:27:51;;;;;;;;;;;;;;;6.30;89.91;99921.25;6338061;22;19975;-88
2022/06/14 12:30:20;;;;;;;;;;;;;;;6.26;89.67;99916.97;6337690;22;20321;-88
2022/06/14 12:32:56;;;;;;;;;;;;;;;6.16;89.71;99913.69;6308996;22;19934;-87
2022/06/14 12:35:24;;;;;;;;;;;;;;;6.25;90.04;99918.72;6338004;22;19915;-88
2022/06/14 12:38:04;;;;;;;;;;;;;;;6.32;89.90;99906.31;6335698;22;19906;-87
2022/06/14 12:40:32;;;;;;;;;;;;;;;6.21;89.74;99905.66;6336590;22;19911;-87
2022/06/14 12:43:00;;;;;;;;;;;;;;;6.15;89.53;99904.06;6338021;22;20314;-88
2022/06/14 12:45:29;;;;;;;;;;;;;;;6.27;89.67;99898.50;6337600;22;19911;-88
2022/06/14 12:48:16;;;;;;;;;;;;;;;6.25;89.58;99900.28;6309992;22;19985;-88
2022/06/14 12:50:48;;;;;;;;;;;;;;;6.16;89.62;99900.53;6309937;22;19991;-87
2022/06/14 12:53:37;;;;;;;;;;;;;;;6.35;89.89;99904.47;6335427;22;19920;-87
2022/06/14 12:56:09;;;;;;;;;;;;;;;6.20;89.61;99896.91;6277779;22;20380;-88
2022/06/14 12:58:47;;;;;;;;;;;;;;;6.12;89.88;99896.22;6337375;22;20215;-87
2022/06/14 13:01:28;;;;;;;;;;;;;;;6.24;89.63;99888.06;6309424;22;20385;-87
2022/06/14 13:03:59;;;;;;;;;;;;;;;6.21;89.69;99880.22;6309273;22;19914;-87
2022/06/14 13:06:43;;;;;;;;;;;;;;;6.20;89.51;99875.84;6336464;22;20627;-87
2022/06/14 13:09:08;;;;;;;;;;;;;;;6.17;89.25;99865.41;6309178;22;19925;-87
2022/06/14 13:11:33;;;;;;;;;;;;;;;6.20;89.11;99851.31;6337454;22;19940;-87
2022/06/14 13:14:07;;;;;;;;;;;;;;;6.29;89.39;99862.50;6337368;22;19914;-87
2022/06/14 13:16:43;;;;;;;;;;;;;;;6.28;89.15;99866.00;6336876;22;19917;-88
2022/06/14 13:19:08;;;;;;;;;;;;;;;6.41;89.20;99850.78;6309429;22;19922;-87
2022/06/14 13:21:33;;;;;;;;;;;;;;;6.30;89.28;99851.06;6333552;22;19915;-87
2022/06/14 13:24:17;;;;;;;;;;;;;;;6.29;89.41;99849.34;6337026;22;19946;-87
2022/06/14 13:27:01;;;;;;;;;;;;;;;6.18;89.56;99848.72;6337257;22;19918;-85
2022/06/14 13:29:31;;;;;;;;;;;;;;;6.16;90.11;99850.53;6309223;22;19919;-87
2022/06/14 13:32:15;;;;;;;;;;;;;;;6.17;89.86;99841.72;6309484;22;19915;-87
2022/06/14 13:34:43;;;;;;;;;;;;;;;6.16;89.97;99840.00;6337584;22;19956;-88
2022/06/14 13:37:08;;;;;;;;;;;;;;;6.21;89.83;99845.13;6336661;22;19933;-88
2022/06/14 13:39:38;;;;;;;;;;;;;;;6.25;90.06;99841.53;6310406;22;19911;-88
2022/06/14 13:42:24;;;;;;;;;;;;;;;6.15;89.69;99833.88;6336070;22;20306;-87
2022/06/14 13:44:53;;;;;;;;;;;;;;;6.20;90.13;99846.06;6336747;22;19991;-87
2022/06/14 13:47:24;;;;;;;;;;;;;;;6.41;91.16;99842.88;6337422;22;19993;-87
2022/06/14 13:49:57;;;;;;;;;;;;;;;6.88;93.72;99834.69;6309735;22;19921;-87
2022/06/14 13:52:25;;;;;;;;;;;;;;;7.27;96.71;99831.84;6336398;22;19918;-87
2022/06/14 13:54:56;;;;;;;;;;;;;;;7.18;96.83;99832.97;6337334;22;19914;-87
2022/06/14 13:57:32;;;;;;;;;;;;;;;6.62;94.67;99825.72;6337478;22;19910;-86
2022/06/14 14:00:03;;;;;;;;;;;;;;;7.12;96.70;99825.25;6310154;22;20350;-87
2022/06/14 14:02:42;;;;;;;;;;;;;;;7.40;98.16;99817.41;6309965;22;19919;-87
2022/06/14 14:05:22;;;;;;;;;;;;;;;7.26;98.12;99819.59;6337482;22;19922;-87
2022/06/14 14:08:10;;;;;;;;;;;;;;;6.82;95.50;99816.41;6335870;22;19936;-87
2022/06/14 14:10:44;;;;;;;;;;;;;;;6.82;94.02;99817.25;6337769;22;19992;-88
2022/06/14 14:13:10;;;;;;;;;;;;;;;6.63;92.70;99808.97;6337291;22;19918;-87
2022/06/14 14:15:41;;;;;;;;;;;;;;;6.57;92.15;99816.19;6338690;22;19910;-87
2022/06/14 14:18:19;;;;;;;;;;;;;;;6.53;91.39;99807.50;6339251;22;20241;-88
2022/06/14 14:20:50;;;;;;;;;;;;;;;6.48;91.14;99799.72;6310703;22;20213;-87
2022/06/14 14:23:22;;;;;;;;;;;;;;;6.78;93.06;99798.94;6337488;22;19915;-87
2022/06/14 14:25:51;;;;;;;;;;;;;;;7.27;95.83;99805.47;6312067;22;19910;-88
2022/06/14 14:28:24;;;;;;;;;;;;;;;7.56;98.04;99795.84;6311326;22;19993;-87
2022/06/14 14:31:08;;;;;;;;;;;;;;;7.25;96.99;99796.75;6338893;22;19914;-87
2022/06/14 14:33:36;;;;;;;;;;;;;;;7.43;97.25;99796.19;6338939;22;19998;-89
2022/06/14 14:36:05;;;;;;;;;;;;;;;7.66;98.79;99797.31;6338957;22;19982;-88
2022/06/14 14:38:40;;;;;;;;;;;;;;;7.78;99.86;99791.63;6310428;22;20326;-88
2022/06/14 14:41:37;;;;;;;;;;;;;;;7.34;97.25;99787.72;6338928;22;19918;-88
2022/06/14 14:44:07;;;;;;;;;;;;;;;7.46;97.28;99788.19;6336998;22;20315;-87
2022/06/14 14:46:35;;;;;;;;;;;;;;;7.76;98.85;99787.34;6338853;22;20219;-88
2022/06/14 14:49:12;;;;;;;;;;;;;;;7.98;100.00;99775.19;6337138;22;19910;-88
2022/06/14 14:51:38;;;;;;;;;;;;;;;7.59;97.96;99787.84;6309050;22;20341;-87
2022/06/14 14:54:09;;;;;;;;;;;;;;;7.67;97.44;99783.19;6338702;22;19911;-88
2022/06/14 14:56:56;;;;;;;;;;;;;;;7.92;98.99;99778.00;6311226;22;19918;-88
2022/06/14 14:59:38;;;;;;;;;;;;;;;8.04;100.00;99771.50;6310645;22;20421;-88
2022/06/14 15:05:24;;;;;;;;;;;;;;;7.18;95.43;99774.13;6338823;22;19941;-88
2022/06/14 15:07:53;;;;;;;;;;;;;;;7.60;96.66;99763.22;6337170;22;19910;-88
2022/06/14 15:13:14;;;;;;;;;;;;;;;8.06;99.75;99763.50;6338495;22;20318;-88
2022/06/14 15:15:47;;;;;;;;;;;;;;;7.46;97.12;99763.63;6311019;22;19918;-88
2022/06/14 15:21:18;;;;;;;;;;;;;;;8.04;99.37;99750.38;6338610;22;19992;-89
2022/06/14 15:23:49;;;;;;;;;;;;;;;8.03;99.91;99753.91;6337248;22;20334;-88
2022/06/14 15:26:18;;;;;;;;;;;;;;;7.55;97.09;99754.59;6338525;22;20617;-88
2022/06/14 15:28:48;;;;;;;;;;;;;;;7.33;95.45;99747.31;6304212;22;19950;-88
2022/06/14 15:31:25;;;;;;;;;;;;;;;7.26;94.22;99751.91;6278564;22;19918;-87
2022/06/14 15:33:52;;;;;;;;;;;;;;;7.35;93.55;99745.50;6309296;22;19925;-89
2022/06/14 15:36:49;;;;;;;;;;;;;;;7.72;95.74;99736.47;6309789;22;20486;-88
2022/06/14 15:39:39;;;;;;;;;;;;;;;;;;;;;
2022/06/14 15:42:25;;;;;;;;;;;;;;;7.93;98.56;99736.66;6339034;22;19993;-88
2022/06/14 15:44:53;;;;;;;;;;;;;;;7.52;96.76;99726.53;6337544;22;19955;-88
2022/06/14 15:47:29;;;;;;;;;;;;;;;7.98;98.21;99729.47;6311021;22;20346;-87
2022/06/14 15:49:57;;;;;;;;;;;;;;;8.19;99.81;99722.59;6310975;22;20314;-88
2022/06/14 15:52:49;;;;;;;;;;;;;;;8.04;99.21;99715.19;6309284;22;19963;-88
2022/06/14 15:55:27;;;;;;;;;;;;;;;8.04;98.23;99718.72;6336151;22;19931;-88
2022/06/14 15:58:04;;;;;;;;;;;;;;;8.25;99.21;99724.16;6310629;22;19918;-88
2022/06/14 16:00:33;;;;;;;;;;;;;;;8.37;100.00;99719.31;6338404;22;19922;-88
2022/06/14 16:03:14;;;;;;;;;;;;;;;7.89;98.06;99713.94;6338447;22;20666;-88
2022/06/14 16:05:53;;;;;;;;;;;;;;;8.24;98.38;99703.97;6310978;22;20314;-87
2022/06/14 16:08:46;;;;;;;;;;;;;;;8.42;99.95;99698.03;6304417;22;20192;-88
2022/06/14 16:11:15;;;;;;;;;;;;;;;8.23;99.63;99697.81;6305854;22;20345;-88
2022/06/14 16:13:50;;;;;;;;;;;;;;;7.68;97.23;99697.91;6279476;22;20315;-88
2022/06/14 16:16:36;;;;;;;;;;;;;;;8.03;98.01;99695.00;6307283;22;19911;-88
2022/06/14 16:19:23;;;;;;;;;;;;;;;8.35;99.80;99696.53;6279405;22;19911;-88
2022/06/14 16:21:54;;;;;;;;;;;;;;;8.25;99.73;99696.00;6278064;22;19915;-88
2022/06/14 16:24:21;;;;;;;;;;;;;;;7.85;97.76;99685.91;6306789;22;19949;-88
2022/06/14 16:26:57;;;;;;;;;;;;;;;;;;;;;
2022/06/14 16:29:35;;;;;;;;;;;;;;;8.44;100.00;99684.81;6306980;22;20303;-88
2022/06/14 16:35:25;;;;;;;;;;;;;;;8.13;97.86;99678.78;6285603;22;19922;-88
2022/06/14 16:38:14;;;;;;;;;;;;;;;8.45;99.98;99670.69;6277354;22;20247;-86
2022/06/14 16:40:50;;;;;;;;;;;;;;;8.46;100.00;99677.72;6306683;22;20098;-87
2022/06/14 16:43:32;;;;;;;;;;;;;;;7.77;97.23;99663.31;6279702;22;20281;-87
2022/06/14 16:46:18;;;;;;;;;;;;;;;8.19;98.67;99661.91;6306566;22;19910;-87
2022/06/14 16:48:56;;;;;;;;;;;;;;;8.47;100.00;99659.19;6306870;22;19918;-87
2022/06/14 16:51:27;;;;;;;;;;;;;;;8.23;99.51;99660.84;6306477;22;19966;-87
2022/06/14 16:53:57;;;;;;;;;;;;;;;8.08;98.28;99651.69;6307195;22;19918;-88
2022/06/14 16:56:29;;;;;;;;;;;;;;;8.41;99.58;99646.16;6279594;22;19910;-88
2022/06/14 16:59:03;;;;;;;;;;;;;;;8.60;100.00;99656.06;6306778;22;19911;-88
2022/06/14 17:01:43;;;;;;;;;;;;;;;8.02;98.30;99651.91;6306994;22;19911;-87
2022/06/14 17:04:18;;;;;;;;;;;;;;;;;;;;;
2022/06/14 17:06:49;;;;;;;;;;;;;;;8.46;99.86;99652.16;6305377;22;20013;-88
2022/06/14 17:09:15;;;;;;;;;;;;;;;8.59;100.00;99651.72;6279302;22;19917;-87
2022/06/14 17:11:45;;;;;;;;;;;;;;;7.99;98.81;99647.63;6278958;22;20385;-87
2022/06/14 17:14:21;;;;;;;;;;;;;;;8.16;98.22;99644.38;6279396;22;19946;-87
2022/06/14 17:16:53;;;;;;;;;;;;;;;8.47;99.84;99638.06;6279103;22;19918;-87
2022/06/14 17:19:41;;;;;;;;;;;;;;;8.62;100.00;99633.13;6306505;22;19915;-87
2022/06/14 17:22:33;;;;;;;;;;;;;;;8.06;97.96;99634.19;6277602;22;19911;-86
2022/06/14 17:30:08;;;;;;;;;;;;;;;8.42;99.34;99629.38;6279170;22;20311;-86
2022/06/14 17:31:10;;;;;;;;;;;;;;;8.30;98.73;99621.94;6306435;22;20262;-87
2022/06/14 17:33:50;;;;;;;;;;;;;;;8.31;98.86;99623.63;6306142;22;19911;-87
2022/06/14 17:36:34;;;;;;;;;;;;;;;8.64;100.00;99628.63;6306567;22;19936;-87
2022/06/14 17:39:28;;;;;;;;;;;;;;;8.52;100.00;99624.66;6279330;22;20239;-87
2022/06/14 17:41:57;;;;;;;;;;;;;;;8.01;97.41;99631.75;6205939;23;19916;-87
2022/06/14 17:44:34;;;;;;;;;;;;;;;7.93;95.89;99625.84;6211710;23;19958;-88
2022/06/14 17:47:14;;;;;;;;;;;;;;;;;;;;;
2022/06/14 17:53:29;;;;;;;;;;;;;;;8.59;99.25;99618.22;6242227;22;19912;-88
2022/06/14 17:56:13;;;;;;;;;;;;;;;8.33;99.03;99613.91;6213814;22;20019;-88
2022/06/14 17:58:54;;;;;;;;;;;;;;;7.95;96.61;99613.47;6213411;23;20272;-88
2022/06/14 18:01:33;;;;;;;;;;;;;;;7.73;95.05;99615.97;6213413;23;19912;-88
2022/06/14 18:04:06;;;;;;;;;;;;;;;7.70;94.40;99619.56;6213489;23;20419;-87
2022/06/14 18:07:00;;;;;;;;;;;;;;;;;;;;;
2022/06/14 18:09:51;;;;;;;;;;;;;;;7.56;92.99;99621.81;6213400;23;20003;-88
2022/06/14 18:12:45;;;;;;;;;;;;;;;7.48;93.11;99618.56;6235677;22;19921;-87
2022/06/14 18:15:50;;;;;;;;;;;;;;;7.64;94.29;99627.69;6308065;22;20307;-86
2022/06/14 18:19:02;;;;;;;;;;;;;;;;;;;;;
2022/06/14 18:21:29;;;;;;;;;;;;;;;8.40;99.86;99618.03;6306499;22;19997;-85
2022/06/14 18:23:59;;;;;;;;;;;;;;;7.93;97.64;99620.56;6308112;22;19910;-87
2022/06/14 18:26:36;;;;;;;;;;;;;;;7.66;95.83;99631.16;6280870;22;19911;-86
2022/06/14 18:29:14;;;;;;;;;;;;;;;;;;;;;
2022/06/14 18:32:01;;;;;;;;;;;;;;;7.57;93.79;99631.47;6308154;22;19989;-88
2022/06/14 18:34:32;;;;;;;;;;;;;;;7.41;93.18;99637.22;6280511;22;20349;-87
2022/06/14 18:36:57;;;;;;;;;;;;;;;7.43;92.90;99627.47;6279196;22;19914;-88
2022/06/14 18:39:30;;;;;;;;;;;;;;;7.47;93.05;99630.91;6280728;22;19990;-87
2022/06/14 18:42:10;;;;;;;;;;;;;;;7.39;92.42;99620.59;6307935;22;19992;-88
2022/06/14 18:44:39;;;;;;;;;;;;;;;7.37;92.43;99619.81;6307894;22;19911;-87
2022/06/14 18:47:38;;;;;;;;;;;;;;;7.36;92.51;99618.06;6307731;22;19911;-88
2022/06/14 18:50:16;;;;;;;;;;;;;;;;;;;;;
2022/06/14 18:53:03;;;;;;;;;;;;;;;7.32;91.77;99616.41;6306084;22;20295;-87
2022/06/14 18:55:46;;;;;;;;;;;;;;;7.31;91.63;99620.00;6280527;22;20350;-87
2022/06/14 18:58:28;;;;;;;;;;;;;;;7.28;91.80;99622.72;6307648;22;19911;-87
2022/06/14 19:01:23;;;;;;;;;;;;;;;;;;;;;
2022/06/14 19:06:58;;;;;;;;;;;;;;;7.29;91.93;99624.44;6242289;22;19917;-87
2022/06/14 19:12:48;;;;;;;;;;;;;;;7.24;91.46;99610.53;6270563;22;19919;-86
2022/06/14 19:15:25;;;;;;;;;;;;;;;7.17;91.06;99609.88;6307610;22;20334;-87
2022/06/14 19:18:17;;;;;;;;;;;;;;;7.64;94.25;99606.59;6307623;22;19915;-87
2022/06/14 19:20:42;;;;;;;;;;;;;;;8.11;97.36;99598.81;6278407;22;19986;-87
2022/06/14 19:23:24;;;;;;;;;;;;;;;8.05;98.10;99601.66;6278457;22;19942;-87
2022/06/14 19:26:12;;;;;;;;;;;;;;;7.59;95.82;99605.88;6280544;22;20319;-87
2022/06/14 19:28:52;;;;;;;;;;;;;;;7.41;94.05;99616.13;6307680;22;19994;-86
2022/06/14 19:31:24;;;;;;;;;;;;;;;7.36;92.59;99612.78;6307672;22;20306;-89
2022/06/14 19:33:51;;;;;;;;;;;;;;;7.27;92.33;99615.72;6307052;22;19926;-87
2022/06/14 19:36:27;;;;;;;;;;;;;;;7.28;92.05;99618.31;6307721;22;19956;-87
2022/06/14 19:38:53;;;;;;;;;;;;;;;7.21;91.49;99616.78;6279223;22;19915;-85
2022/06/14 19:41:30;;;;;;;;;;;;;;;7.19;91.40;99618.59;6307322;22;19910;-86
2022/06/14 19:43:59;;;;;;;;;;;;;;;7.21;91.20;99621.19;6307077;22;20339;-87
2022/06/14 19:46:38;;;;;;;;;;;;;;;7.16;91.18;99628.38;6279685;22;19921;-86
2022/06/14 19:52:03;;;;;;;;;;;;;;;7.20;91.11;99632.66;6305551;22;20040;-87
2022/06/14 19:54:46;;;;;;;;;;;;;;;7.09;90.99;99631.19;6279680;22;19910;-88
2022/06/14 19:57:19;;;;;;;;;;;;;;;7.13;90.88;99629.31;6280217;22;19920;-88
2022/06/14 19:59:57;;;;;;;;;;;;;;;7.08;91.12;99637.41;6306190;22;20354;-89
2022/06/14 20:02:27;;;;;;;;;;;;;;;7.11;90.81;99641.69;6279101;22;19911;-88
2022/06/14 20:04:57;;;;;;;;;;;;;;;7.05;90.63;99641.88;6307022;22;19942;-87
2022/06/14 20:07:26;;;;;;;;;;;;;;;7.07;90.76;99643.56;6305074;22;19922;-87
2022/06/14 20:09:58;;;;;;;;;;;;;;;7.15;90.58;99647.72;6279507;22;20232;-86
2022/06/14 20:12:26;;;;;;;;;;;;;;;7.05;90.49;99649.78;6306316;22;19911;-88
2022/06/14 20:14:56;;;;;;;;;;;;;;;7.00;90.88;99659.59;6279505;22;19915;-91
2022/06/14 20:17:27;;;;;;;;;;;;;;;7.03;90.89;99657.72;6279032;22;20243;-87
2022/06/14 20:19:56;;;;;;;;;;;;;;;6.96;90.90;99658.84;6278998;22;19914;-87
2022/06/14 20:22:27;;;;;;;;;;;;;;;7.00;91.08;99664.88;6305189;22;19986;-86
2022/06/14 20:24:55;;;;;;;;;;;;;;;6.97;90.71;99672.84;6306607;22;19915;-86
2022/06/14 20:27:23;;;;;;;;;;;;;;;6.89;90.79;99673.97;6305587;22;19911;-87
2022/06/14 20:29:55;;;;;;;;;;;;;;;6.96;90.77;99674.63;6306546;22;19918;-86
2022/06/14 20:32:31;;;;;;;;;;;;;;;6.92;90.38;99673.00;6306715;22;20441;-86
2022/06/14 20:34:58;;;;;;;;;;;;;;;7.01;90.38;99680.63;6274144;22;19919;-87
2022/06/14 20:37:27;;;;;;;;;;;;;;;6.91;90.37;99674.78;6272907;22;20236;-87
2022/06/14 20:39:56;;;;;;;;;;;;;;;6.93;90.30;99689.69;6275726;22;19922;-87
2022/06/14 20:42:23;;;;;;;;;;;;;;;6.91;90.40;99684.47;6274126;22;20282;-87
2022/06/14 20:44:57;;;;;;;;;;;;;;;6.84;90.34;99690.81;6276007;22;19994;-86
2022/06/14 20:47:35;;;;;;;;;;;;;;;;;;;;;
2022/06/14 20:50:07;;;;;;;;;;;;;;;6.89;90.21;99694.16;6275581;22;19983;-87
2022/06/14 20:52:35;;;;;;;;;;;;;;;6.91;90.02;99687.09;6274134;22;19965;-88
2022/06/14 20:55:02;;;;;;;;;;;;;;;6.83;89.83;99696.97;6275668;22;20267;-88
2022/06/14 21:00:27;;;;;;;;;;;;;;;8.17;89.43;99693.63;6219461;22;19911;-89
2022/06/14 21:03:13;;;;;;;;;;;;;;;7.54;90.27;99692.19;6248180;22;19938;-89
2022/06/14 21:06:08;;;;;;;;;;;;;;;;;;;;;
2022/06/14 21:08:52;;;;;;;;;;;;;;;7.14;90.66;99699.56;6274019;22;19990;-88
2022/06/14 21:12:03;;;;;;;;;;;;;;;7.08;90.79;99700.63;6248665;22;19914;-89
2022/06/14 21:15:06;;;;;;;;;;;;;;;7.08;90.37;99700.63;6248282;22;20250;-90
2022/06/14 21:20:51;;;;;;;;;;;;;;;;;;;;;
2022/06/14 21:26:46;;;;;;;;;;;;;;;;;;;;;
2022/06/14 21:38:36;;;;;;;;;;;;;;;;;;;;;